Time;durP1;ratioP1;P1;durP2;ratioP2;P2;SDS_P1;SDS_P2;PMS_P1;PMS_P2;Temp;Humidity;BMP_temperature;BMP_pressure;BME280_temperature;BME280_humidity;BME280_pressure;Samples;Min_cycle;Max_cycle;Signal;HPM_P1;HPM_P2
2020/12/07 12:44:07;;;;;;;36.17;19.35;;;;;;;4.88;78.65;97209.53;1660240;85;21170;-79
2020/12/07 12:46:41;;;;;;;;;;;;;;;;;;;;;
2020/12/07 12:49:01;;;;;;;38.83;20.92;;;;;;;4.90;79.17;97210.87;1660885;84;21061;-78
2020/12/07 12:54:15;;;;;;;36.50;20.92;;;;;;;4.95;78.87;97214.90;1858210;76;23610;-78
2020/12/07 12:56:41;;;;;;;40.43;20.62;;;;;;;4.92;79.22;97218.66;1817607;79;21178;-77
2020/12/07 12:59:07;;;;;;;66.33;37.83;;;;;;;4.89;78.70;97212.48;1817701;79;21007;-78
2020/12/07 13:01:37;;;;;;;48.60;28.00;;;;;;;4.75;77.71;97206.77;1817596;78;21476;-78
2020/12/07 13:04:03;;;;;;;39.75;24.27;;;;;;;4.78;78.26;97202.21;1817551;78;21015;-78
2020/12/07 13:06:34;;;;;;;43.92;26.55;;;;;;;4.80;78.87;97203.59;1817540;78;21170;-77
2020/12/07 13:09:01;;;;;;;43.13;23.87;;;;;;;4.77;78.14;97198.72;1817594;78;21118;-77
2020/12/07 13:11:32;;;;;;;42.27;22.30;;;;;;;4.71;78.37;97201.14;1817591;79;21957;-76
2020/12/07 13:14:00;;;;;;;33.30;21.73;;;;;;;4.71;78.42;97212.41;1817315;79;21556;-79
2020/12/07 13:16:29;;;;;;;40.67;21.17;;;;;;;4.65;78.70;97212.10;1817423;79;21589;-79
2020/12/07 13:18:58;;;;;;;33.08;17.73;;;;;;;4.61;78.76;97210.45;1817237;79;21114;-78
2020/12/07 13:21:37;;;;;;;39.23;19.60;;;;;;;4.55;78.66;97218.23;1816151;79;21142;-80
2020/12/07 13:24:06;;;;;;;39.50;20.05;;;;;;;4.53;78.88;97217.69;1815396;79;21127;-78
2020/12/07 13:26:51;;;;;;;35.05;18.73;;;;;;;4.56;79.03;97225.20;1816625;79;21182;-78
2020/12/07 13:29:10;;;;;;;36.98;19.67;;;;;;;4.48;78.41;97224.35;1815962;79;20900;-79
2020/12/07 13:31:42;;;;;;;33.83;19.80;;;;;;;4.46;78.56;97229.17;1817598;79;21011;-78
2020/12/07 13:34:08;;;;;;;41.42;23.55;;;;;;;4.41;78.48;97221.08;1817586;79;21110;-78
2020/12/07 13:36:33;;;;;;;40.83;21.68;;;;;;;4.37;78.40;97223.49;1817560;79;21245;-77
2020/12/07 13:39:00;;;;;;;39.85;23.35;;;;;;;4.32;78.19;97234.17;1817602;79;20880;-78
2020/12/07 13:41:26;;;;;;;44.93;22.70;;;;;;;4.30;78.28;97232.30;1817512;79;21094;-79
2020/12/07 13:43:52;;;;;;;52.75;27.70;;;;;;;4.29;78.51;97233.89;1817604;79;20876;-78
2020/12/07 13:46:18;;;;;;;50.28;27.58;;;;;;;4.20;78.55;97234.37;1817629;79;21074;-77
2020/12/07 13:48:44;;;;;;;45.88;23.83;;;;;;;4.17;78.62;97228.70;1817603;79;21420;-78
2020/12/07 13:51:23;;;;;;;41.20;23.35;;;;;;;4.15;78.75;97229.50;1787831;79;20877;-77
2020/12/07 13:53:42;;;;;;;44.25;23.60;;;;;;;4.11;78.95;97238.60;1812153;79;21464;-79
2020/12/07 13:56:14;;;;;;;42.55;21.65;;;;;;;4.12;78.95;97237.53;1780724;80;21024;-79
2020/12/07 13:58:47;;;;;;;45.10;22.62;;;;;;;4.11;79.01;97235.92;1814375;79;21007;-79
2020/12/07 14:01:12;;;;;;;58.83;37.23;;;;;;;4.17;79.11;97254.17;1780141;80;21036;-79
2020/12/07 14:03:44;;;;;;;40.40;22.35;;;;;;;4.05;78.95;97261.60;1814250;79;21253;-79
2020/12/07 14:06:08;;;;;;;66.37;50.80;;;;;;;4.09;79.17;97255.98;1779116;80;21146;-80
2020/12/07 14:08:38;;;;;;;47.98;29.23;;;;;;;4.03;79.08;97259.19;1813529;78;21870;-79
2020/12/07 14:11:04;;;;;;;48.33;29.63;;;;;;;4.09;79.31;97260.81;1779980;80;21171;-78
2020/12/07 14:13:30;;;;;;;59.23;31.62;;;;;;;4.12;79.32;97254.96;1813734;79;21406;-79
2020/12/07 14:15:56;;;;;;;46.33;26.33;;;;;;;4.06;79.23;97254.64;1780130;80;21507;-78
2020/12/07 14:18:28;;;;;;;46.15;27.45;;;;;;;4.09;79.16;97262.16;1813858;79;20896;-79
2020/12/07 14:21:09;;;;;;;51.25;26.15;;;;;;;4.09;79.25;97271.55;1779983;80;21464;-79
2020/12/07 14:23:55;;;;;;;50.88;27.42;;;;;;;4.09;79.21;97281.46;1812482;79;21543;-79
2020/12/07 14:26:08;;;;;;;61.90;27.98;;;;;;;4.07;79.31;97277.70;1769975;80;20932;-78
2020/12/07 14:31:23;;;;;;;57.60;27.10;;;;;;;4.04;79.49;97278.22;1813900;79;21597;-78
2020/12/07 14:39:30;;;;;;;54.00;28.35;;;;;;;3.95;79.65;97275.20;1813712;79;21340;-77
2020/12/07 14:41:44;;;;;;;73.35;38.10;;;;;;;4.02;79.60;97284.38;1775291;80;21161;-77
2020/12/07 14:44:10;;;;;;;52.00;31.62;;;;;;;3.96;79.69;97285.39;1784440;79;21020;-80
2020/12/07 14:46:38;;;;;;;60.60;31.93;;;;;;;3.90;79.77;97288.55;1780047;80;21125;-80
2020/12/07 14:49:04;;;;;;;111.10;46.10;;;;;;;3.88;79.74;97280.48;1813672;79;21810;-78
2020/12/07 14:51:38;;;;;;;150.55;72.85;;;;;;;3.86;79.93;97292.81;1781742;80;21877;-80
2020/12/07 14:54:16;;;;;;;209.80;106.15;;;;;;;3.83;79.76;97295.98;1812837;79;21027;-79
2020/12/07 15:07:16;;;;;;;262.70;102.80;;;;;;;3.40;80.58;97290.98;1780088;80;21151;-78
2020/12/07 15:13:49;;;;;;;105.52;50.67;;;;;;;3.31;80.60;97301.06;1780120;80;21123;-78
2020/12/07 15:15:05;;;;;;;118.72;63.13;;;;;;;3.32;80.74;97300.00;1808869;79;21190;-78
2020/12/07 15:17:31;;;;;;;112.50;60.35;;;;;;;3.33;80.74;97294.41;1780140;80;21242;-79
2020/12/07 15:19:57;;;;;;;130.35;68.02;;;;;;;3.25;81.41;97288.16;1813857;79;20904;-78
2020/12/07 15:22:23;;;;;;;132.85;71.87;;;;;;;3.16;81.99;97288.30;1780223;80;20968;-78
2020/12/07 15:24:49;;;;;;;147.72;77.30;;;;;;;3.11;81.65;97286.38;1813772;79;21238;-79
2020/12/07 15:27:18;;;;;;;125.53;61.23;;;;;;;3.06;81.41;97286.84;1780235;80;21910;-80
2020/12/07 15:29:46;;;;;;;80.60;44.08;;;;;;;2.99;83.25;97290.23;1813840;79;21165;-78
2020/12/07 15:32:12;;;;;;;77.60;44.85;;;;;;;3.02;81.90;97287.87;1781747;80;21081;-79
2020/12/07 15:34:38;;;;;;;103.27;58.40;;;;;;;3.02;81.92;97293.23;1813754;79;21035;-78
2020/12/07 15:37:04;;;;;;;85.67;47.70;;;;;;;3.01;82.83;97300.17;1813926;79;21558;-79
2020/12/07 15:39:29;;;;;;;81.37;45.17;;;;;;;2.86;83.52;97290.61;1813864;79;21052;-77
2020/12/07 15:41:56;;;;;;;114.82;55.88;;;;;;;2.89;83.39;97298.13;1780162;80;21179;-78
2020/12/07 15:44:23;;;;;;;196.60;87.42;;;;;;;2.91;82.47;97292.02;1813803;79;21288;-77
2020/12/07 15:46:50;;;;;;;142.82;63.45;;;;;;;2.91;82.39;97294.17;1779991;80;21460;-79
2020/12/07 15:49:16;;;;;;;158.60;71.80;;;;;;;2.92;82.17;97286.42;1813727;79;21193;-79
2020/12/07 15:51:42;;;;;;;113.47;53.78;;;;;;;2.97;82.33;97287.80;1779895;80;22178;-79
2020/12/07 15:54:09;;;;;;;125.40;59.60;;;;;;;2.99;82.48;97292.91;1813671;79;21200;-79
2020/12/07 15:56:35;;;;;;;110.95;56.68;;;;;;;2.98;82.26;97288.61;1779916;80;21194;-77
2020/12/07 15:59:01;;;;;;;121.82;68.67;;;;;;;2.96;82.28;97289.39;1780064;80;21604;-78
2020/12/07 16:01:27;;;;;;;118.45;64.60;;;;;;;2.95;82.28;97281.09;1813817;79;20975;-78
2020/12/07 16:03:53;;;;;;;131.90;73.15;;;;;;;2.91;82.32;97281.32;1779921;80;21495;-79
2020/12/07 16:06:19;;;;;;;150.97;86.25;;;;;;;2.78;82.30;97275.78;1782241;79;21441;-78
2020/12/07 16:08:45;;;;;;;126.80;61.95;;;;;;;2.73;82.14;97290.42;1779812;80;21214;-77
2020/12/07 16:11:20;;;;;;;108.95;53.73;;;;;;;2.67;82.08;97283.41;1813669;79;21051;-77
2020/12/07 16:13:47;;;;;;;105.52;57.50;;;;;;;2.62;82.12;97285.47;1779794;80;21162;-78
2020/12/07 16:16:17;;;;;;;113.28;60.67;;;;;;;2.63;82.39;97279.06;1813644;79;21028;-77
2020/12/07 16:18:49;;;;;;;130.75;72.92;;;;;;;2.69;82.42;97278.61;1779953;80;21138;-80
2020/12/07 16:21:15;;;;;;;139.12;77.58;;;;;;;2.75;82.58;97286.47;1813633;79;21055;-80
2020/12/07 16:23:42;;;;;;;129.78;63.30;;;;;;;2.75;83.55;97274.42;1781613;80;21423;-77
2020/12/07 16:26:08;;;;;;;116.67;56.30;;;;;;;2.79;83.43;97279.55;1813695;79;21083;-78
2020/12/07 16:28:34;;;;;;;124.45;61.73;;;;;;;2.76;83.14;97276.04;1779984;80;21381;-77
2020/12/07 16:31:00;;;;;;;140.22;70.40;;;;;;;2.68;84.32;97271.11;1813723;79;21259;-77
2020/12/07 16:33:26;;;;;;;144.20;71.75;;;;;;;2.72;83.40;97265.53;1779898;80;20952;-77
2020/12/07 16:35:52;;;;;;;143.80;67.80;;;;;;;2.69;83.15;97268.72;1813729;79;21444;-77
2020/12/07 16:38:18;;;;;;;139.68;67.10;;;;;;;2.67;83.11;97270.03;1779917;80;21820;-78
2020/12/07 16:40:46;;;;;;;177.35;88.25;;;;;;;2.63;83.01;97260.86;1813800;79;21650;-77
2020/12/07 16:43:12;;;;;;;180.87;88.80;;;;;;;2.66;83.25;97269.22;1780191;80;21194;-79
2020/12/07 16:45:38;;;;;;;116.57;59.03;;;;;;;2.68;83.23;97272.98;1813663;79;21531;-79
2020/12/07 16:48:04;;;;;;;117.35;58.70;;;;;;;2.72;83.29;97268.74;1779949;80;21052;-79
2020/12/07 16:50:33;;;;;;;353.95;145.77;;;;;;;2.73;83.30;97269.83;1813721;79;21463;-79
2020/12/07 16:52:59;;;;;;;429.75;163.12;;;;;;;2.79;83.67;97270.72;1780056;80;24064;-78
2020/12/07 16:55:25;;;;;;;385.63;151.40;;;;;;;2.83;83.50;97268.64;1782027;79;22950;-79
2020/12/07 16:57:51;;;;;;;379.80;151.63;;;;;;;2.91;83.61;97274.63;1779947;80;21051;-79
2020/12/07 17:00:17;;;;;;;357.80;157.32;;;;;;;3.00;83.54;97283.31;1813698;79;21581;-79
2020/12/07 17:02:46;;;;;;;351.50;166.50;;;;;;;2.99;83.26;97265.64;1781626;80;21061;-78
2020/12/07 17:05:16;;;;;;;278.55;139.47;;;;;;;2.99;83.37;97279.02;1813901;79;21033;-79
2020/12/07 17:07:40;;;;;;;321.27;150.05;;;;;;;2.99;83.39;97285.71;1812734;79;21039;-79
2020/12/07 17:10:06;;;;;;;402.40;209.07;;;;;;;3.03;83.33;97282.80;1781918;79;21551;-79
2020/12/07 17:12:33;;;;;;;313.92;151.27;;;;;;;3.08;83.33;97280.73;1779827;80;20952;-79
2020/12/07 17:14:59;;;;;;;310.45;160.52;;;;;;;3.12;83.17;97276.48;1812535;79;21017;-79
2020/12/07 17:17:27;;;;;;;266.23;136.15;;;;;;;3.15;83.25;97282.66;1749602;80;20924;-79
2020/12/07 17:19:54;;;;;;;241.17;122.62;;;;;;;3.19;83.16;97277.11;1813654;79;21132;-79
2020/12/07 17:22:20;;;;;;;174.68;90.40;;;;;;;3.28;83.11;97279.62;1778631;79;21067;-78
2020/12/07 17:24:46;;;;;;;189.57;100.75;;;;;;;3.26;83.04;97283.61;1813705;79;20936;-78
2020/12/07 17:27:12;;;;;;;171.90;87.02;;;;;;;3.29;83.08;97285.78;1780038;80;21493;-79
2020/12/07 17:29:38;;;;;;;245.05;121.17;;;;;;;3.32;83.11;97283.93;1813657;79;21126;-79
2020/12/07 17:32:05;;;;;;;205.43;109.72;;;;;;;3.28;83.11;97282.83;1779978;80;21276;-79
2020/12/07 17:34:31;;;;;;;230.50;127.72;;;;;;;3.27;83.11;97281.21;1813530;79;21066;-79
2020/12/07 17:36:56;;;;;;;231.20;129.53;;;;;;;3.29;83.30;97275.88;1781543;80;20930;-79
2020/12/07 17:39:22;;;;;;;269.98;142.60;;;;;;;3.35;83.33;97280.23;1813794;79;20900;-79
2020/12/07 17:41:49;;;;;;;274.52;147.78;;;;;;;3.35;83.33;97280.23;1813748;79;20864;-80
2020/12/07 17:44:15;;;;;;;276.10;147.95;;;;;;;3.39;83.14;97288.56;1813892;79;21199;-79
2020/12/07 17:46:41;;;;;;;259.00;141.92;;;;;;;3.35;82.94;97295.50;1813686;79;21658;-79
2020/12/07 17:49:07;;;;;;;337.95;166.97;;;;;;;3.36;82.85;97289.89;1780039;80;21230;-79
2020/12/07 17:51:33;;;;;;;319.30;158.87;;;;;;;3.34;82.76;97293.35;1813771;79;21019;-79
2020/12/07 17:54:01;;;;;;;262.82;132.40;;;;;;;3.35;82.74;97296.84;1780088;80;20910;-78
2020/12/07 17:56:29;;;;;;;264.32;129.93;;;;;;;3.37;82.67;97301.41;1813650;79;21518;-77
2020/12/07 17:58:54;;;;;;;178.65;94.58;;;;;;;3.36;82.61;97299.27;1779338;80;21209;-79
2020/12/07 18:01:20;;;;;;;235.35;114.85;;;;;;;3.34;82.67;97288.00;1813798;79;20947;-79
2020/12/07 18:03:46;;;;;;;224.00;114.75;;;;;;;3.29;82.83;97287.93;1813881;79;21077;-79
2020/12/07 18:06:20;;;;;;;220.97;106.15;;;;;;;3.22;83.02;97292.66;1813814;79;21011;-79
2020/12/07 18:08:46;;;;;;;126.27;65.12;;;;;;;3.21;83.15;97295.59;1749916;80;21250;-79
2020/12/07 18:11:12;;;;;;;100.25;51.25;;;;;;;3.27;83.73;97291.39;1813901;79;21028;-79
2020/12/07 18:13:38;;;;;;;102.17;49.20;;;;;;;3.35;83.71;97297.64;1780090;80;21111;-79
2020/12/07 18:16:04;;;;;;;97.60;51.73;;;;;;;3.41;83.96;97301.17;1813899;79;20900;-77
2020/12/07 18:18:30;;;;;;;100.80;52.43;;;;;;;3.48;83.65;97295.09;1749762;80;20985;-79
2020/12/07 18:20:56;;;;;;;111.45;54.55;;;;;;;3.51;83.65;97294.61;1782229;79;21166;-79
2020/12/07 18:23:22;;;;;;;110.30;56.68;;;;;;;3.51;83.72;97295.95;1781612;80;20887;-79
2020/12/07 18:25:48;;;;;;;125.67;64.40;;;;;;;3.51;83.56;97297.82;1813880;79;20900;-79
2020/12/07 18:28:14;;;;;;;117.70;63.35;;;;;;;3.52;83.41;97296.22;1780168;80;21022;-78
2020/12/07 18:30:43;;;;;;;117.67;62.78;;;;;;;3.53;83.99;97297.03;1813880;79;20995;-79
2020/12/07 18:33:09;;;;;;;110.05;61.75;;;;;;;3.57;83.51;97299.47;1780116;80;21251;-78
2020/12/07 18:35:34;;;;;;;105.50;55.65;;;;;;;3.60;83.47;97297.65;1813830;79;20912;-78
2020/12/07 18:38:00;;;;;;;109.90;54.70;;;;;;;3.62;83.61;97296.86;1780093;80;22096;-78
2020/12/07 18:40:26;;;;;;;116.93;55.52;;;;;;;3.67;83.54;97303.09;1813708;79;21565;-77
2020/12/07 18:42:59;;;;;;;110.40;53.83;;;;;;;3.64;83.47;97298.21;1780200;80;20960;-78
2020/12/07 18:45:25;;;;;;;96.12;49.60;;;;;;;3.61;83.69;97294.71;1813319;79;21072;-79
2020/12/07 18:47:51;;;;;;;95.20;46.05;;;;;;;3.64;83.84;97299.55;1813678;79;21595;-78
2020/12/07 18:50:18;;;;;;;90.50;46.83;;;;;;;3.64;83.94;97304.91;1813709;79;21087;-78
2020/12/07 18:52:44;;;;;;;98.07;48.70;;;;;;;3.63;83.83;97311.34;1780060;80;21242;-78
2020/12/07 18:55:10;;;;;;;99.50;51.02;;;;;;;3.59;84.21;97310.23;1813722;79;21459;-78
2020/12/07 18:57:36;;;;;;;94.87;50.38;;;;;;;3.57;84.48;97308.31;1779828;80;21307;-79
2020/12/07 19:00:09;;;;;;;100.78;53.10;;;;;;;3.53;84.03;97316.59;1813794;79;20889;-79
2020/12/07 19:02:34;;;;;;;100.45;51.70;;;;;;;3.53;84.03;97316.59;1779590;80;21370;-78
2020/12/07 19:05:00;;;;;;;94.15;50.20;;;;;;;3.50;83.81;97314.39;1813944;79;21415;-79
2020/12/07 19:07:26;;;;;;;98.75;51.73;;;;;;;3.48;83.79;97315.72;1749739;80;21543;-78
2020/12/07 19:09:56;;;;;;;93.52;47.10;;;;;;;3.48;83.71;97320.54;1813881;79;21939;-78
2020/12/07 19:12:23;;;;;;;95.15;49.80;;;;;;;3.46;83.75;97324.01;1779994;80;21072;-78
2020/12/07 19:17:37;;;;;;;161.87;94.83;;;;;;;3.42;83.86;97324.74;1839116;77;27873;-77
2020/12/07 19:20:06;;;;;;;129.57;69.75;;;;;;;3.48;83.98;97332.59;1829605;77;21019;-78
2020/12/07 19:22:32;;;;;;;;;;;;;;;3.44;83.85;97328.81;1850804;77;21433;-79
2020/12/07 19:25:00;;;;;;;95.75;46.18;;;;;;;3.38;83.75;97333.82;1848913;77;20249;-79
2020/12/07 19:27:25;;;;;;;92.02;54.60;;;;;;;3.29;83.61;97333.45;1847416;77;21178;-78
2020/12/07 19:29:51;;;;;;;91.10;50.17;;;;;;;3.21;83.55;97333.89;1848992;76;20885;-78
2020/12/07 19:32:25;;;;;;;126.07;55.67;;;;;;;3.13;83.51;97334.84;1848909;77;21284;-77
2020/12/07 19:34:51;;;;;;;92.47;53.08;;;;;;;3.09;83.42;97339.38;1847335;77;21077;-78
2020/12/07 19:42:59;;;;;;;61.73;32.48;;;;;;;2.93;83.49;97328.70;1861648;76;21643;-77
2020/12/07 19:45:25;;;;;;;69.05;34.15;;;;;;;2.81;83.62;97330.94;1836201;77;20969;-77
2020/12/07 19:47:51;;;;;;;65.52;35.85;;;;;;;2.71;83.85;97330.00;1823662;78;21149;-77
2020/12/07 19:50:17;;;;;;;68.47;33.90;;;;;;;2.74;83.92;97334.34;1793869;78;21597;-77
2020/12/07 19:52:43;;;;;;;70.62;37.78;;;;;;;2.80;83.90;97337.88;1823633;78;21038;-77
2020/12/07 19:55:09;;;;;;;78.05;41.95;;;;;;;2.80;83.90;97337.88;1823762;78;20888;-77
2020/12/07 19:57:37;;;;;;;83.25;41.60;;;;;;;2.76;83.86;97332.23;1823788;78;21049;-77
2020/12/07 20:00:07;;;;;;;79.58;38.63;;;;;;;2.75;83.82;97330.61;1794281;78;21298;-77
2020/12/07 20:02:35;;;;;;;234.75;97.27;;;;;;;2.72;83.87;97329.75;1822705;78;21027;-78
2020/12/07 20:05:01;;;;;;;122.62;62.40;;;;;;;2.67;83.64;97329.69;1823095;78;21535;-79
2020/12/07 20:07:27;;;;;;;81.30;40.45;;;;;;;2.55;83.58;97337.80;1823654;78;21047;-79
2020/12/07 20:09:53;;;;;;;70.10;36.50;;;;;;;2.51;84.01;97335.34;1823744;78;20912;-79
2020/12/07 20:12:24;;;;;;;68.75;34.88;;;;;;;2.49;84.53;97337.45;1823666;78;21587;-77
2020/12/07 20:14:50;;;;;;;64.70;32.25;;;;;;;2.54;84.67;97340.72;1795010;78;21078;-77
2020/12/07 20:17:16;;;;;;;63.55;34.65;;;;;;;2.51;84.87;97347.91;1823662;78;20987;-78
2020/12/07 20:19:42;;;;;;;66.67;32.83;;;;;;;2.49;85.14;97344.67;1823678;78;22136;-78
2020/12/07 20:22:14;;;;;;;69.12;33.75;;;;;;;2.53;84.58;97346.59;1823736;78;21006;-78
2020/12/07 20:24:40;;;;;;;70.08;34.73;;;;;;;2.59;84.55;97348.02;1823782;78;21983;-77
2020/12/07 20:27:06;;;;;;;67.75;34.78;;;;;;;2.60;84.61;97349.64;1794161;78;20995;-77
2020/12/07 20:29:32;;;;;;;66.75;34.63;;;;;;;2.60;84.96;97346.97;1823602;78;21031;-76
2020/12/07 20:31:58;;;;;;;68.67;37.50;;;;;;;2.61;84.67;97349.92;1823747;78;21169;-77
2020/12/07 20:34:24;;;;;;;62.53;33.35;;;;;;;2.61;84.87;97349.92;1823567;78;21173;-76
2020/12/07 20:36:50;;;;;;;80.25;38.05;;;;;;;2.55;84.83;97359.19;1823707;78;21186;-76
2020/12/07 20:39:16;;;;;;;72.58;38.02;;;;;;;2.52;84.63;97362.89;1793857;78;21541;-77
2020/12/07 20:41:44;;;;;;;73.55;38.78;;;;;;;2.46;84.62;97360.66;1823503;78;21557;-77
2020/12/07 20:44:10;;;;;;;76.67;39.85;;;;;;;2.43;84.41;97354.47;1822919;78;21101;-78
2020/12/07 20:46:36;;;;;;;79.47;40.00;;;;;;;2.41;84.30;97364.60;1823792;78;21003;-78
2020/12/07 20:49:05;;;;;;;74.80;37.88;;;;;;;2.39;84.65;97369.36;1823795;78;21087;-78
2020/12/07 20:51:31;;;;;;;61.95;34.80;;;;;;;2.41;84.44;97367.28;1823836;78;28030;-78
2020/12/07 20:53:57;;;;;;;65.95;34.75;;;;;;;2.44;84.46;97371.32;1823172;78;20876;-77
2020/12/07 20:56:23;;;;;;;67.32;36.15;;;;;;;2.51;84.61;97378.66;1823084;78;21391;-78
2020/12/07 20:58:49;;;;;;;80.22;42.65;;;;;;;2.54;84.60;97380.31;1793320;78;21189;-78
2020/12/07 21:01:15;;;;;;;71.25;39.13;;;;;;;2.57;84.69;97383.05;1823059;78;21382;-78
2020/12/07 21:03:41;;;;;;;115.42;56.45;;;;;;;2.55;84.75;97383.27;1822920;78;20880;-78
2020/12/07 21:06:07;;;;;;;76.85;40.25;;;;;;;2.59;84.84;97382.27;1822980;78;20919;-78
2020/12/07 21:08:33;;;;;;;66.50;38.10;;;;;;;2.61;84.80;97378.00;1823105;78;21184;-78
2020/12/07 21:10:59;;;;;;;81.02;45.65;;;;;;;2.54;84.95;97377.63;1823041;78;21170;-78
2020/12/07 21:13:25;;;;;;;94.62;49.10;;;;;;;2.48;84.87;97375.95;1822897;78;21200;-78
2020/12/07 21:15:51;;;;;;;87.65;43.40;;;;;;;2.44;84.93;97376.14;1823049;78;21003;-77
2020/12/07 21:18:17;;;;;;;72.37;38.65;;;;;;;2.43;84.74;97378.53;1822988;78;20923;-77
2020/12/07 21:20:46;;;;;;;79.22;41.70;;;;;;;2.42;85.09;97376.11;1823037;78;21171;-78
2020/12/07 21:23:10;;;;;;;77.32;37.88;;;;;;;2.34;84.77;97382.66;1822442;78;21098;-78
2020/12/07 21:25:37;;;;;;;65.62;33.28;;;;;;;2.32;85.57;97387.98;1823167;78;21211;-78
2020/12/07 21:28:03;;;;;;;80.28;40.25;;;;;;;2.31;84.95;97380.48;1823077;78;21177;-78
2020/12/07 21:30:28;;;;;;;70.65;34.27;;;;;;;2.34;84.87;97391.22;1823107;78;21633;-78
2020/12/07 21:32:54;;;;;;;68.47;36.10;;;;;;;2.38;84.90;97388.33;1823169;78;21769;-78
2020/12/07 21:35:22;;;;;;;66.42;32.28;;;;;;;2.40;84.93;97392.40;1823156;78;21121;-78
2020/12/07 21:37:54;;;;;;;66.72;37.28;;;;;;;2.42;85.10;97384.13;1822994;78;21527;-77
2020/12/07 21:40:18;;;;;;;65.57;35.95;;;;;;;2.41;85.14;97381.98;1822532;78;21021;-78
2020/12/07 21:42:44;;;;;;;72.78;38.13;;;;;;;2.46;84.99;97382.05;1820775;78;20915;-78
2020/12/07 21:45:10;;;;;;;78.15;39.67;;;;;;;2.50;84.96;97387.21;1785771;80;21066;-77
2020/12/07 21:47:39;;;;;;;76.02;37.95;;;;;;;2.43;84.93;97383.08;1819920;78;20928;-78
2020/12/07 21:50:05;;;;;;;90.22;44.38;;;;;;;2.38;85.06;97378.44;1785983;80;21543;-77
2020/12/07 21:52:31;;;;;;;69.10;37.73;;;;;;;2.25;85.28;97375.56;1819795;78;21081;-77
2020/12/07 21:54:57;;;;;;;60.75;33.38;;;;;;;2.29;85.09;97372.41;1819819;78;20962;-77
2020/12/07 21:57:22;;;;;;;65.85;33.95;;;;;;;2.30;84.99;97372.16;1819825;78;20920;-78
2020/12/07 21:59:51;;;;;;;69.10;33.90;;;;;;;2.26;85.06;97370.50;1785928;80;21031;-77
2020/12/07 22:02:17;;;;;;;60.52;32.60;;;;;;;2.25;85.04;97379.58;1819978;78;21256;-78
2020/12/07 22:04:43;;;;;;;71.05;36.38;;;;;;;2.22;84.69;97374.73;1819637;78;20974;-78
2020/12/07 22:07:09;;;;;;;65.22;33.45;;;;;;;2.20;85.01;97380.01;1819836;78;20900;-78
2020/12/07 22:09:35;;;;;;;59.48;32.23;;;;;;;2.23;84.95;97375.01;1755114;80;21511;-78
2020/12/07 22:12:04;;;;;;;55.83;30.88;;;;;;;2.17;85.47;97378.64;1788027;78;21102;-78
2020/12/07 22:14:30;;;;;;;;;;;;;;;2.15;85.41;97378.61;1788464;80;22017;-78
2020/12/07 22:16:57;;;;;;;72.85;35.20;;;;;;;2.13;85.46;97384.16;1819817;78;20169;-77
2020/12/07 22:19:23;;;;;;;70.35;33.65;;;;;;;2.19;85.54;97379.73;1819817;78;21288;-77
2020/12/07 22:21:49;;;;;;;61.18;30.95;;;;;;;2.21;85.43;97374.94;1785926;80;21178;-77
2020/12/07 22:24:15;;;;;;;58.95;31.80;;;;;;;2.29;85.50;97373.73;1787512;78;21448;-77
2020/12/07 22:26:41;;;;;;;59.18;33.95;;;;;;;2.34;85.40;97375.98;1785871;80;21727;-78
2020/12/07 22:29:08;;;;;;;61.85;32.55;;;;;;;2.37;85.37;97380.02;1819676;78;21042;-77
2020/12/07 22:31:34;;;;;;;64.90;34.20;;;;;;;2.42;85.32;97386.28;1820114;78;20975;-77
2020/12/07 22:34:00;;;;;;;65.75;34.75;;;;;;;2.45;85.17;97379.09;1755384;80;21164;-77
2020/12/07 22:37:49;;;;;;;59.03;32.70;;;;;;;2.43;85.15;97378.53;1875225;76;23266;-76
2020/12/07 22:40:15;;;;;;;63.95;33.02;;;;;;;2.33;85.09;97376.23;1812842;78;21464;-76
2020/12/07 22:42:41;;;;;;;65.45;33.45;;;;;;;2.26;84.80;97377.72;1778658;79;21294;-76
2020/12/07 22:45:07;;;;;;;64.70;34.80;;;;;;;2.23;85.00;97379.02;1796413;78;20919;-76
2020/12/07 22:47:33;;;;;;;58.87;33.53;;;;;;;2.25;84.71;97378.77;1778594;79;21119;-77
2020/12/07 22:49:59;;;;;;;58.52;32.28;;;;;;;2.28;84.80;97382.81;1796480;78;21036;-77
2020/12/07 22:52:25;;;;;;;60.50;32.15;;;;;;;2.29;84.72;97375.08;1796424;79;20968;-77
2020/12/07 22:54:51;;;;;;;54.38;30.88;;;;;;;2.32;84.88;97378.09;1796457;78;21547;-77
2020/12/07 22:57:17;;;;;;;54.88;29.63;;;;;;;2.37;84.98;97374.15;1796371;79;21066;-77
2020/12/07 22:59:43;;;;;;;52.43;29.75;;;;;;;2.36;85.09;97378.41;1796464;78;21087;-76
2020/12/07 23:02:09;;;;;;;55.20;29.70;;;;;;;2.35;85.02;97380.80;1796444;79;21601;-76
2020/12/07 23:04:36;;;;;;;58.42;30.88;;;;;;;2.29;85.10;97377.22;1796212;78;21019;-77
2020/12/07 23:07:03;;;;;;;54.30;30.62;;;;;;;2.19;85.31;97380.53;1796290;79;21271;-77
2020/12/07 23:09:29;;;;;;;73.42;32.90;;;;;;;2.13;85.24;97381.49;1778341;79;21085;-76
2020/12/07 23:11:56;;;;;;;58.83;33.23;;;;;;;2.04;85.70;97379.45;1796210;79;21051;-76
2020/12/07 23:14:23;;;;;;;63.73;32.35;;;;;;;2.05;85.75;97383.75;1796328;78;21130;-77
2020/12/07 23:16:51;;;;;;;58.45;33.42;;;;;;;1.99;85.96;97382.86;1778588;79;21173;-77
2020/12/07 23:19:17;;;;;;;55.15;31.42;;;;;;;2.01;85.68;97389.30;1778868;78;21575;-78
2020/12/07 23:21:43;;;;;;;60.35;33.33;;;;;;;2.07;85.51;97391.83;1796346;79;20904;-78
2020/12/07 23:24:09;;;;;;;58.87;30.23;;;;;;;2.13;85.41;97390.84;1796342;78;21126;-78
2020/12/07 23:26:35;;;;;;;57.13;28.60;;;;;;;2.12;85.33;97380.41;1796270;79;20939;-77
2020/12/07 23:29:01;;;;;;;53.92;28.20;;;;;;;2.03;85.61;97383.19;1778469;79;21094;-78
2020/12/07 23:31:29;;;;;;;49.95;29.00;;;;;;;1.94;85.68;97370.21;1796193;79;21480;-78
2020/12/07 23:33:55;;;;;;;51.02;29.65;;;;;;;1.96;85.56;97379.31;1795956;79;21130;-77
2020/12/07 23:36:21;;;;;;;56.65;29.48;;;;;;;1.89;86.25;97380.83;1795278;78;20999;-78
2020/12/07 23:38:47;;;;;;;51.58;29.92;;;;;;;1.94;85.74;97392.11;1793290;79;20932;-78
2020/12/07 23:41:18;;;;;;;51.40;29.20;;;;;;;1.97;85.81;97393.80;1773140;79;21146;-77
2020/12/07 23:43:44;;;;;;;57.08;27.93;;;;;;;1.83;86.44;97387.64;1793233;80;21212;-77
2020/12/07 23:46:10;;;;;;;59.08;28.05;;;;;;;1.74;86.47;97398.42;1773004;79;21307;-77
2020/12/07 23:48:36;;;;;;;57.85;28.70;;;;;;;1.68;86.57;97396.17;1792728;80;21725;-77
2020/12/07 23:51:02;;;;;;;55.40;27.65;;;;;;;1.56;87.61;97400.23;1792634;78;20996;-78
2020/12/07 23:53:29;;;;;;;56.95;29.48;;;;;;;1.58;87.04;97393.30;1792693;80;21210;-77
2020/12/07 23:55:54;;;;;;;55.52;29.98;;;;;;;1.56;86.86;97396.75;1792520;78;21218;-78
2020/12/07 23:58:20;;;;;;;56.40;29.40;;;;;;;1.57;86.89;97394.36;1792648;79;21047;-78
